Time;durP1;ratioP1;P1;durP2;ratioP2;P2;SDS_P1;SDS_P2;PMS_P1;PMS_P2;Temp;Humidity;BMP_temperature;BMP_pressure;BME280_temperature;BME280_humidity;BME280_pressure;Samples;Min_cycle;Max_cycle;Signal;HPM_P1;HPM_P2
2023/12/05 00:02:05;;;;;;;11.55;4.70;;;;;;;;;;10412512;28;20538;-65
2023/12/05 00:07:05;;;;;;;8.27;4.50;;;;;;;;;;10413363;28;20052;-65
2023/12/05 00:12:07;;;;;;;8.50;4.38;;;;;;;;;;10412669;28;20026;-62
2023/12/05 00:17:08;;;;;;;12.00;4.57;;;;;;;;;;10414355;28;20483;-63
2023/12/05 00:22:09;;;;;;;8.95;4.45;;;;;;;;;;10412526;28;20036;-63
2023/12/05 00:27:09;;;;;;;6.30;3.97;;;;;;;;;;10411472;28;20038;-62
2023/12/05 00:32:10;;;;;;;8.63;4.20;;;;;;;;;;10422057;28;20060;-63
2023/12/05 00:37:11;;;;;;;9.07;4.88;;;;;;;;;;10450707;28;20044;-63
2023/12/05 00:42:11;;;;;;;9.80;4.15;;;;;;;;;;10451640;28;20025;-63
2023/12/05 00:47:12;;;;;;;9.20;4.28;;;;;;;;;;10450867;28;20365;-63
2023/12/05 00:52:12;;;;;;;5.22;4.03;;;;;;;;;;10450997;28;20162;-63
2023/12/05 00:57:13;;;;;;;6.53;4.18;;;;;;;;;;10452099;28;20361;-62
2023/12/05 01:02:13;;;;;;;8.15;4.15;;;;;;;;;;10451097;28;20388;-64
2023/12/05 01:07:14;;;;;;;5.53;4.03;;;;;;;;;;10449752;28;20032;-62
2023/12/05 01:12:15;;;;;;;6.60;3.60;;;;;;;;;;10450889;28;20029;-63
2023/12/05 01:17:16;;;;;;;4.38;3.25;;;;;;;;;;10450525;28;20033;-64
2023/12/05 01:22:16;;;;;;;7.13;3.88;;;;;;;;;;10450583;28;20455;-63
2023/12/05 01:27:17;;;;;;;6.82;4.00;;;;;;;;;;10448473;28;20268;-63
2023/12/05 01:32:17;;;;;;;5.78;4.07;;;;;;;;;;10448081;28;20055;-63
2023/12/05 01:37:18;;;;;;;4.63;3.60;;;;;;;;;;10448228;28;20028;-64
2023/12/05 01:42:19;;;;;;;8.50;3.90;;;;;;;;;;10449790;28;20034;-63
2023/12/05 01:47:19;;;;;;;3.90;3.50;;;;;;;;;;10448797;28;20052;-63
2023/12/05 01:52:20;;;;;;;4.55;3.30;;;;;;;;;;10448799;28;20049;-61
2023/12/05 01:57:21;;;;;;;8.32;3.45;;;;;;;;;;10449240;28;20017;-62
2023/12/05 02:02:22;;;;;;;4.28;3.30;;;;;;;;;;10448236;28;20052;-61
2023/12/05 02:07:23;;;;;;;4.00;3.30;;;;;;;;;;10442806;28;20024;-62
2023/12/05 02:12:23;;;;;;;3.72;3.33;;;;;;;;;;10445778;28;20035;-61
2023/12/05 02:17:38;;;;;;;7.15;3.33;;;;;;;;;;10448515;28;20342;-62
2023/12/05 02:23:00;;;;;;;4.00;3.38;;;;;;;;;;10439889;28;20105;-62
2023/12/05 02:28:02;;;;;;;9.38;3.17;;;;;;;;;;10448042;28;20044;-62
2023/12/05 02:33:03;;;;;;;4.70;3.45;;;;;;;;;;10444833;28;20447;-62
2023/12/05 02:38:16;;;;;;;4.88;3.50;;;;;;;;;;10446788;28;20087;-64
2023/12/05 02:43:24;;;;;;;5.15;3.63;;;;;;;;;;10447478;28;20449;-64
2023/12/05 02:48:25;;;;;;;7.22;3.13;;;;;;;;;;10444861;28;20128;-61
2023/12/05 02:53:26;;;;;;;3.75;3.03;;;;;;;;;;10462163;28;20397;-64
2023/12/05 02:58:28;;;;;;;4.72;3.20;;;;;;;;;;10446356;28;20036;-63
2023/12/05 03:03:29;;;;;;;4.25;3.15;;;;;;;;;;10446582;28;20029;-65
2023/12/05 03:08:29;;;;;;;3.40;2.92;;;;;;;;;;10446142;28;20056;-65
2023/12/05 03:13:30;;;;;;;5.65;3.28;;;;;;;;;;10445186;28;20017;-65
2023/12/05 03:18:31;;;;;;;5.18;3.15;;;;;;;;;;10445467;28;20044;-64
2023/12/05 03:23:31;;;;;;;3.58;2.97;;;;;;;;;;10437938;28;20060;-62
2023/12/05 03:28:32;;;;;;;4.25;3.15;;;;;;;;;;10440339;28;20029;-64
2023/12/05 03:33:35;;;;;;;3.38;2.80;;;;;;;;;;10453282;28;20087;-63
2023/12/05 03:38:39;;;;;;;3.65;2.67;;;;;;;;;;10444447;28;20036;-63
2023/12/05 03:43:40;;;;;;;3.58;2.55;;;;;;;;;;10453097;28;20159;-62
2023/12/05 03:48:40;;;;;;;2.90;2.50;;;;;;;;;;10453516;28;20079;-61
2023/12/05 03:53:41;;;;;;;6.00;2.90;;;;;;;;;;10453904;28;20132;-62
2023/12/05 03:58:42;;;;;;;3.60;2.83;;;;;;;;;;10454306;28;20648;-63
2023/12/05 04:03:42;;;;;;;3.50;2.97;;;;;;;;;;10453941;28;20381;-63
2023/12/05 04:08:43;;;;;;;4.03;2.85;;;;;;;;;;10453911;28;20133;-63
2023/12/05 04:13:43;;;;;;;3.40;2.28;;;;;;;;;;10452494;28;20064;-62
2023/12/05 04:18:44;;;;;;;3.80;2.63;;;;;;;;;;10452475;28;20032;-61
2023/12/05 04:23:46;;;;;;;5.97;2.92;;;;;;;;;;10453025;28;20577;-62
2023/12/05 04:28:47;;;;;;;2.63;2.30;;;;;;;;;;10452798;28;20037;-61
2023/12/05 04:33:47;;;;;;;3.38;2.45;;;;;;;;;;10452314;28;20060;-62
2023/12/05 04:38:48;;;;;;;3.38;2.70;;;;;;;;;;10451739;28;20021;-63
2023/12/05 04:43:48;;;;;;;5.28;3.00;;;;;;;;;;10451215;28;20049;-63
2023/12/05 04:48:49;;;;;;;5.88;2.72;;;;;;;;;;10451222;28;20032;-63
2023/12/05 04:53:49;;;;;;;3.55;2.40;;;;;;;;;;10451962;28;20044;-63
2023/12/05 04:58:50;;;;;;;3.85;2.50;;;;;;;;;;10452409;28;20017;-63
2023/12/05 05:03:51;;;;;;;4.13;2.75;;;;;;;;;;10451333;28;20033;-63
2023/12/05 05:08:51;;;;;;;2.85;2.40;;;;;;;;;;10451311;28;20033;-63
2023/12/05 05:13:52;;;;;;;2.45;2.25;;;;;;;;;;10450898;28;20267;-63
2023/12/05 05:18:53;;;;;;;3.03;2.28;;;;;;;;;;10450780;28;20025;-63
2023/12/05 05:23:53;;;;;;;2.40;2.20;;;;;;;;;;10451651;28;20032;-65
2023/12/05 05:28:54;;;;;;;3.83;3.13;;;;;;;;;;10450843;28;20056;-65
2023/12/05 05:33:54;;;;;;;2.83;2.45;;;;;;;;;;10449524;28;20025;-65
2023/12/05 05:38:55;;;;;;;2.80;2.22;;;;;;;;;;10450438;28;20437;-65
2023/12/05 05:43:55;;;;;;;4.20;2.65;;;;;;;;;;10449421;28;20391;-62
2023/12/05 05:48:56;;;;;;;3.58;2.42;;;;;;;;;;10450158;28;20385;-64
2023/12/05 05:53:58;;;;;;;2.60;2.30;;;;;;;;;;10448562;28;20508;-64
2023/12/05 05:58:58;;;;;;;2.38;2.17;;;;;;;;;;10448263;28;20035;-65
2023/12/05 06:03:59;;;;;;;2.88;2.38;;;;;;;;;;10448794;28;20029;-62
2023/12/05 06:08:59;;;;;;;2.67;2.47;;;;;;;;;;10436836;28;20162;-62
2023/12/05 06:14:00;;;;;;;4.60;2.53;;;;;;;;;;10449040;28;20041;-62
2023/12/05 06:19:01;;;;;;;2.70;2.50;;;;;;;;;;10440499;28;20036;-62
2023/12/05 06:24:01;;;;;;;3.13;2.15;;;;;;;;;;10423097;28;20037;-63
2023/12/05 06:29:04;;;;;;;2.92;2.63;;;;;;;;;;10438915;28;21158;-62
2023/12/05 06:34:06;;;;;;;6.13;2.67;;;;;;;;;;10432217;28;20053;-62
2023/12/05 06:39:08;;;;;;;2.63;2.08;;;;;;;;;;10447678;28;20040;-62
2023/12/05 06:44:08;;;;;;;2.40;2.20;;;;;;;;;;10421991;28;20035;-61
2023/12/05 06:49:09;;;;;;;2.40;2.20;;;;;;;;;;10444606;28;20063;-64
2023/12/05 06:54:09;;;;;;;4.30;2.30;;;;;;;;;;10440122;28;20392;-65
2023/12/05 06:59:10;;;;;;;3.90;2.90;;;;;;;;;;10433706;28;20443;-68
2023/12/05 07:04:10;;;;;;;5.32;2.83;;;;;;;;;;10442237;28;20047;-64
2023/12/05 07:09:11;;;;;;;16.40;3.08;;;;;;;;;;10430646;28;20032;-63
2023/12/05 07:14:13;;;;;;;7.97;2.90;;;;;;;;;;10434023;28;20025;-63
2023/12/05 07:19:13;;;;;;;7.40;3.35;;;;;;;;;;10437554;28;20114;-63
2023/12/05 07:24:14;;;;;;;8.45;3.45;;;;;;;;;;10447202;28;20075;-62
2023/12/05 07:29:14;;;;;;;5.50;2.97;;;;;;;;;;10447248;28;20036;-63
2023/12/05 07:34:15;;;;;;;7.57;3.05;;;;;;;;;;10445630;28;20025;-63
2023/12/05 07:39:16;;;;;;;11.20;3.80;;;;;;;;;;10445296;28;20116;-63
2023/12/05 07:44:17;;;;;;;6.70;3.20;;;;;;;;;;10412293;28;20044;-62
2023/12/05 07:49:18;;;;;;;9.15;3.60;;;;;;;;;;10402435;28;20120;-62
2023/12/05 07:54:19;;;;;;;5.97;3.28;;;;;;;;;;10402980;28;20094;-62
2023/12/05 07:59:19;;;;;;;5.88;3.15;;;;;;;;;;10402701;28;20432;-62
2023/12/05 08:04:20;;;;;;;4.38;2.70;;;;;;;;;;10402315;28;20080;-62
2023/12/05 08:09:20;;;;;;;7.55;3.33;;;;;;;;;;10402277;28;20491;-62
2023/12/05 08:14:21;;;;;;;6.85;2.90;;;;;;;;;;10404788;28;20064;-62
2023/12/05 08:19:22;;;;;;;3.70;2.72;;;;;;;;;;10410860;28;20036;-62
2023/12/05 08:24:22;;;;;;;5.75;3.40;;;;;;;;;;10410792;28;20041;-62
2023/12/05 08:29:23;;;;;;;5.70;3.17;;;;;;;;;;10408966;28;20021;-62
2023/12/05 08:34:23;;;;;;;9.88;3.90;;;;;;;;;;10409030;28;20107;-63
2023/12/05 08:39:24;;;;;;;4.50;3.22;;;;;;;;;;10431161;28;20021;-62
2023/12/05 08:44:26;;;;;;;4.07;2.95;;;;;;;;;;10432192;28;20108;-62
2023/12/05 08:49:26;;;;;;;4.30;3.20;;;;;;;;;;10407894;28;20130;-62
2023/12/05 08:54:27;;;;;;;7.30;3.45;;;;;;;;;;10409264;28;20162;-62
2023/12/05 08:59:27;;;;;;;7.80;3.92;;;;;;;;;;10422613;28;20037;-62
2023/12/05 09:04:28;;;;;;;11.88;3.35;;;;;;;;;;10451668;28;20021;-62
2023/12/05 09:09:28;;;;;;;4.28;3.38;;;;;;;;;;10451700;28;20025;-63
2023/12/05 09:14:29;;;;;;;9.77;3.30;;;;;;;;;;10435274;28;20029;-62
2023/12/05 09:19:30;;;;;;;4.93;3.88;;;;;;;;;;10440480;28;20028;-62
2023/12/05 09:24:31;;;;;;;6.95;3.67;;;;;;;;;;10439066;28;20082;-62
2023/12/05 09:29:31;;;;;;;5.25;3.63;;;;;;;;;;10449679;28;20040;-62
2023/12/05 09:34:32;;;;;;;6.13;3.72;;;;;;;;;;10450480;28;20021;-62
2023/12/05 09:39:32;;;;;;;5.57;3.70;;;;;;;;;;10449843;28;20397;-62
2023/12/05 09:44:34;;;;;;;4.57;3.40;;;;;;;;;;10447748;28;20499;-62
2023/12/05 09:49:34;;;;;;;9.82;3.83;;;;;;;;;;10449070;28;20444;-62
2023/12/05 09:54:36;;;;;;;4.13;3.72;;;;;;;;;;10449421;28;20052;-62
2023/12/05 09:59:37;;;;;;;8.10;3.30;;;;;;;;;;10447838;28;20029;-62
2023/12/05 10:04:44;;;;;;;4.53;3.58;;;;;;;;;;10448584;28;20025;-62
2023/12/05 10:09:45;;;;;;;4.47;3.58;;;;;;;;;;10443240;28;20063;-62
2023/12/05 10:14:46;;;;;;;5.20;3.63;;;;;;;;;;10417775;28;20146;-62
2023/12/05 10:19:47;;;;;;;6.30;3.83;;;;;;;;;;10434288;28;20203;-62
2023/12/05 10:24:48;;;;;;;6.35;3.67;;;;;;;;;;10437956;28;20395;-62
2023/12/05 10:29:49;;;;;;;7.10;4.40;;;;;;;;;;10444536;28;20029;-62
2023/12/05 10:34:52;;;;;;;4.35;3.92;;;;;;;;;;10445929;28;20025;-62
2023/12/05 10:40:00;;;;;;;5.93;4.10;;;;;;;;;;10433378;28;20035;-62
2023/12/05 10:45:06;;;;;;;6.73;3.87;;;;;;;;;;10418083;28;20024;-62
2023/12/05 10:50:07;;;;;;;8.15;4.40;;;;;;;;;;10432240;28;20029;-62
2023/12/05 11:00:29;;;;;;;9.98;4.50;;;;;;;;;;10370196;28;20034;-62
2023/12/05 11:05:31;;;;;;;9.85;4.22;;;;;;;;;;10383094;28;20030;-62
2023/12/05 11:10:32;;;;;;;5.40;4.28;;;;;;;;;;10373578;28;20128;-62
2023/12/05 11:15:37;;;;;;;8.50;4.47;;;;;;;;;;10382063;28;20037;-63
2023/12/05 11:21:22;;;;;;;6.75;4.30;;;;;;;;;;10350910;28;20464;-62
2023/12/05 11:26:51;;;;;;;6.55;4.90;;;;;;;;;;10359839;28;20049;-62
2023/12/05 11:32:24;;;;;;;5.68;4.75;;;;;;;;;;10360220;28;20076;-62
2023/12/05 11:38:14;;;;;;;5.72;4.88;;;;;;;;;;10393511;28;20045;-62
2023/12/05 11:43:14;;;;;;;5.85;4.68;;;;;;;;;;10400938;28;20032;-62
2023/12/05 11:48:24;;;;;;;5.15;4.65;;;;;;;;;;10403067;28;20032;-62
2023/12/05 11:53:24;;;;;;;7.15;4.80;;;;;;;;;;10408570;28;20046;-62
2023/12/05 11:58:34;;;;;;;9.52;4.60;;;;;;;;;;10405041;28;20493;-63
2023/12/05 12:03:47;;;;;;;7.00;4.93;;;;;;;;;;10405037;28;20037;-62
2023/12/05 12:08:50;;;;;;;5.38;4.82;;;;;;;;;;10406052;28;20033;-62
2023/12/05 12:13:51;;;;;;;5.30;4.53;;;;;;;;;;10407255;28;20036;-62
2023/12/05 12:18:51;;;;;;;5.65;4.47;;;;;;;;;;10419269;28;20056;-62
2023/12/05 12:23:57;;;;;;;5.68;3.83;;;;;;;;;;10421442;28;20053;-62
2023/12/05 12:29:08;;;;;;;6.35;4.47;;;;;;;;;;10419836;28;20025;-62
2023/12/05 12:34:25;;;;;;;5.03;4.53;;;;;;;;;;10414676;28;20024;-62
2023/12/05 12:39:27;;;;;;;5.32;4.82;;;;;;;;;;10422922;28;20124;-62
2023/12/05 12:44:28;;;;;;;7.53;5.80;;;;;;;;;;10438047;28;20492;-61
2023/12/05 12:49:29;;;;;;;8.95;5.53;;;;;;;;;;10434319;28;20032;-62
2023/12/05 12:54:29;;;;;;;8.35;5.85;;;;;;;;;;10450783;28;20033;-62
2023/12/05 12:59:31;;;;;;;9.50;5.45;;;;;;;;;;10444503;28;20040;-62
2023/12/05 13:04:36;;;;;;;7.00;5.07;;;;;;;;;;10449485;28;20040;-62
2023/12/05 13:09:36;;;;;;;6.78;5.28;;;;;;;;;;10413957;28;20144;-63
2023/12/05 13:14:37;;;;;;;6.53;4.93;;;;;;;;;;10421849;28;20624;-62
2023/12/05 13:19:38;;;;;;;7.30;5.30;;;;;;;;;;10409001;28;20033;-62
2023/12/05 13:24:38;;;;;;;6.07;4.95;;;;;;;;;;10407847;28;20477;-62
2023/12/05 13:29:39;;;;;;;5.60;4.68;;;;;;;;;;10407283;28;20057;-62
2023/12/05 13:34:39;;;;;;;6.28;5.15;;;;;;;;;;10407308;28;20025;-62
2023/12/05 13:39:40;;;;;;;7.05;4.72;;;;;;;;;;10406937;28;20044;-62
2023/12/05 13:44:42;;;;;;;5.43;4.60;;;;;;;;;;10404472;28;20057;-62
2023/12/05 13:49:43;;;;;;;7.82;4.60;;;;;;;;;;10397410;28;20075;-62
2023/12/05 13:54:45;;;;;;;5.88;4.63;;;;;;;;;;10399133;28;20489;-62
2023/12/05 13:59:45;;;;;;;4.60;4.05;;;;;;;;;;10397779;28;20072;-61
2023/12/05 14:04:46;;;;;;;4.50;4.03;;;;;;;;;;10406721;28;20040;-62
2023/12/05 14:09:46;;;;;;;5.47;4.53;;;;;;;;;;10405142;28;20041;-62
2023/12/05 14:14:47;;;;;;;7.18;4.45;;;;;;;;;;10406216;28;20029;-62
2023/12/05 14:19:47;;;;;;;7.47;3.90;;;;;;;;;;10406840;28;20041;-62
2023/12/05 14:24:48;;;;;;;5.40;3.97;;;;;;;;;;10406181;28;20029;-61
2023/12/05 14:29:49;;;;;;;6.22;4.40;;;;;;;;;;10405264;28;20059;-62
2023/12/05 14:34:49;;;;;;;8.85;4.45;;;;;;;;;;10402487;28;20033;-62
2023/12/05 14:39:50;;;;;;;4.50;4.10;;;;;;;;;;10398357;28;20037;-62
2023/12/05 14:44:51;;;;;;;5.70;4.40;;;;;;;;;;10400727;28;20207;-62
2023/12/05 14:49:51;;;;;;;4.00;3.70;;;;;;;;;;10405084;28;20033;-62
2023/12/05 14:54:52;;;;;;;6.32;4.25;;;;;;;;;;10405841;28;20053;-62
2023/12/05 14:59:54;;;;;;;5.45;4.63;;;;;;;;;;10409015;28;20090;-63
2023/12/05 15:04:55;;;;;;;7.63;4.00;;;;;;;;;;10404532;28;20489;-62
2023/12/05 15:09:56;;;;;;;9.75;4.32;;;;;;;;;;10402731;28;20022;-62
2023/12/05 15:14:57;;;;;;;5.35;3.90;;;;;;;;;;10405065;28;20033;-62
2023/12/05 15:19:57;;;;;;;5.32;4.40;;;;;;;;;;10407959;28;20033;-62
2023/12/05 15:24:58;;;;;;;4.63;3.85;;;;;;;;;;10411639;28;20033;-62
2023/12/05 15:29:59;;;;;;;5.28;3.95;;;;;;;;;;10434221;28;20029;-62
2023/12/05 15:34:59;;;;;;;4.70;4.20;;;;;;;;;;10434510;28;20037;-62
2023/12/05 15:40:00;;;;;;;4.93;4.28;;;;;;;;;;10425433;28;20040;-63
2023/12/05 15:45:00;;;;;;;5.47;4.30;;;;;;;;;;10414653;28;20048;-62
2023/12/05 15:50:01;;;;;;;4.80;4.30;;;;;;;;;;10441344;28;20032;-63
2023/12/05 15:55:02;;;;;;;5.85;4.20;;;;;;;;;;10423170;28;20033;-63
2023/12/05 16:00:04;;;;;;;6.22;4.03;;;;;;;;;;10446925;28;20096;-63
2023/12/05 16:05:05;;;;;;;6.28;4.20;;;;;;;;;;10435036;28;20539;-63
2023/12/05 16:10:07;;;;;;;8.15;3.83;;;;;;;;;;10439304;28;20030;-63
2023/12/05 16:15:08;;;;;;;7.47;4.63;;;;;;;;;;10419195;28;20033;-63
2023/12/05 16:20:09;;;;;;;4.75;4.05;;;;;;;;;;10413468;28;20393;-63
2023/12/05 16:25:10;;;;;;;6.43;5.03;;;;;;;;;;10434337;28;20029;-63
2023/12/05 16:30:11;;;;;;;6.82;4.70;;;;;;;;;;10445355;28;20025;-63
2023/12/05 16:35:11;;;;;;;7.35;4.65;;;;;;;;;;10446760;28;20036;-63
2023/12/05 16:40:12;;;;;;;6.97;4.72;;;;;;;;;;10451624;28;20032;-63
2023/12/05 16:45:13;;;;;;;5.68;4.93;;;;;;;;;;10452324;28;20480;-63
2023/12/05 16:50:13;;;;;;;5.57;4.68;;;;;;;;;;10451547;28;20028;-63
2023/12/05 16:55:14;;;;;;;9.45;4.88;;;;;;;;;;10451973;28;20491;-63
2023/12/05 17:00:16;;;;;;;7.18;5.22;;;;;;;;;;10451239;28;20041;-63
2023/12/05 17:05:17;;;;;;;7.53;4.82;;;;;;;;;;10450184;28;20044;-63
2023/12/05 17:10:18;;;;;;;5.82;5.10;;;;;;;;;;10449507;28;20044;-63
2023/12/05 17:15:18;;;;;;;8.13;5.03;;;;;;;;;;10442596;28;20032;-63
2023/12/05 17:20:19;;;;;;;5.70;5.10;;;;;;;;;;10442700;28;20494;-62
2023/12/05 17:25:19;;;;;;;7.97;4.80;;;;;;;;;;10426826;28;20525;-64
2023/12/05 17:30:20;;;;;;;8.13;4.65;;;;;;;;;;10420524;28;20030;-63
2023/12/05 17:35:21;;;;;;;6.57;4.90;;;;;;;;;;10421379;28;20032;-63
2023/12/05 17:40:21;;;;;;;6.63;4.32;;;;;;;;;;10423663;28;20029;-63
2023/12/05 17:45:22;;;;;;;5.20;4.50;;;;;;;;;;10435239;28;20021;-64
2023/12/05 17:50:23;;;;;;;6.30;5.00;;;;;;;;;;10431461;28;20310;-64
2023/12/05 17:55:24;;;;;;;7.88;4.93;;;;;;;;;;10432546;28;20571;-65
2023/12/05 18:00:24;;;;;;;5.80;4.93;;;;;;;;;;10425583;28;20037;-64
2023/12/05 18:05:25;;;;;;;5.82;4.28;;;;;;;;;;10437725;28;20033;-64
2023/12/05 18:10:27;;;;;;;6.70;4.72;;;;;;;;;;10435418;28;20051;-64
2023/12/05 18:15:27;;;;;;;6.82;4.65;;;;;;;;;;10430172;28;20045;-64
2023/12/05 18:20:28;;;;;;;5.97;4.90;;;;;;;;;;10437904;28;20032;-64
2023/12/05 18:25:29;;;;;;;8.40;5.68;;;;;;;;;;10435215;28;20384;-64
2023/12/05 18:30:29;;;;;;;9.77;5.40;;;;;;;;;;10446135;28;20029;-64
2023/12/05 18:35:30;;;;;;;5.97;4.70;;;;;;;;;;10438455;28;20033;-63
2023/12/05 18:40:31;;;;;;;7.43;4.78;;;;;;;;;;10420636;28;20075;-64
2023/12/05 18:45:31;;;;;;;7.38;4.75;;;;;;;;;;10436669;28;20523;-64
2023/12/05 18:50:32;;;;;;;5.65;4.93;;;;;;;;;;10426029;28;20533;-63
2023/12/05 18:55:33;;;;;;;5.07;4.57;;;;;;;;;;10431732;28;20377;-63
2023/12/05 19:00:34;;;;;;;12.40;4.82;;;;;;;;;;10426205;28;20033;-63
2023/12/05 19:05:35;;;;;;;8.77;4.88;;;;;;;;;;10422088;28;20476;-63
2023/12/05 19:10:35;;;;;;;5.03;4.28;;;;;;;;;;10418451;28;20025;-63
2023/12/05 19:15:36;;;;;;;7.32;4.28;;;;;;;;;;10430978;28;20037;-63
2023/12/05 19:20:36;;;;;;;5.60;4.78;;;;;;;;;;10443941;28;20040;-63
2023/12/05 19:25:39;;;;;;;8.77;4.70;;;;;;;;;;10437891;28;20384;-64
2023/12/05 19:30:39;;;;;;;6.50;4.63;;;;;;;;;;10431185;28;20040;-63
2023/12/05 19:35:44;;;;;;;5.50;4.32;;;;;;;;;;10438625;28;20032;-63
2023/12/05 19:40:44;;;;;;;6.75;5.13;;;;;;;;;;10436324;28;20075;-64
2023/12/05 19:45:45;;;;;;;9.93;5.20;;;;;;;;;;10443342;28;21081;-64
2023/12/05 19:50:45;;;;;;;7.28;5.25;;;;;;;;;;10444981;28;20052;-62
2023/12/05 19:55:47;;;;;;;7.55;5.40;;;;;;;;;;10443888;28;20033;-63
2023/12/05 20:00:48;;;;;;;7.47;5.82;;;;;;;;;;10444846;28;20045;-64
2023/12/05 20:05:49;;;;;;;8.45;6.20;;;;;;;;;;10443364;28;20083;-63
2023/12/05 20:10:49;;;;;;;7.78;5.70;;;;;;;;;;10446720;28;20029;-63
2023/12/05 20:15:50;;;;;;;8.70;5.75;;;;;;;;;;10446535;28;20029;-64
2023/12/05 20:20:50;;;;;;;9.55;5.55;;;;;;;;;;10445948;28;20032;-62
2023/12/05 20:25:51;;;;;;;6.20;5.30;;;;;;;;;;10452749;28;20025;-63
2023/12/05 20:30:52;;;;;;;8.95;5.35;;;;;;;;;;10452215;28;20268;-65
2023/12/05 20:35:52;;;;;;;6.15;4.90;;;;;;;;;;10441231;28;20182;-65
2023/12/05 20:40:53;;;;;;;9.40;4.97;;;;;;;;;;10451144;28;20041;-64
2023/12/05 20:45:54;;;;;;;8.05;5.20;;;;;;;;;;10452460;28;20029;-65
2023/12/05 20:50:54;;;;;;;12.27;6.30;;;;;;;;;;10449599;28;20049;-65
2023/12/05 20:55:55;;;;;;;23.63;7.03;;;;;;;;;;10442597;28;20083;-63
2023/12/05 21:00:56;;;;;;;15.82;6.35;;;;;;;;;;10449959;28;20302;-65
2023/12/05 21:05:57;;;;;;;10.20;6.30;;;;;;;;;;10437573;28;20115;-65
2023/12/05 21:10:58;;;;;;;18.70;6.13;;;;;;;;;;10451022;28;20241;-65
2023/12/05 21:15:59;;;;;;;17.02;6.55;;;;;;;;;;10448839;28;20085;-64
2023/12/05 21:20:59;;;;;;;10.98;5.63;;;;;;;;;;10440772;28;20554;-66
2023/12/05 21:26:00;;;;;;;11.90;5.63;;;;;;;;;;10447041;28;20029;-66
2023/12/05 21:31:01;;;;;;;12.48;5.88;;;;;;;;;;10443752;28;20025;-65
2023/12/05 21:36:02;;;;;;;14.20;6.25;;;;;;;;;;10449244;28;20036;-65
2023/12/05 21:41:03;;;;;;;16.95;6.43;;;;;;;;;;10445050;28;20029;-65
2023/12/05 21:46:04;;;;;;;22.17;7.18;;;;;;;;;;10420062;28;20521;-65
2023/12/05 21:51:05;;;;;;;28.58;7.18;;;;;;;;;;10418092;28;20084;-64
2023/12/05 21:56:07;;;;;;;16.40;6.60;;;;;;;;;;10449145;28;20040;-66
2023/12/05 22:01:16;;;;;;;21.30;6.43;;;;;;;;;;10447406;28;20033;-65
2023/12/05 22:06:17;;;;;;;22.13;7.03;;;;;;;;;;10409692;28;20614;-64
2023/12/05 22:11:18;;;;;;;17.65;6.18;;;;;;;;;;10439429;28;20032;-64
2023/12/05 22:16:19;;;;;;;15.18;6.22;;;;;;;;;;10447306;28;20027;-65
2023/12/05 22:21:19;;;;;;;19.30;6.53;;;;;;;;;;10424621;28;20763;-64
2023/12/05 22:26:20;;;;;;;14.88;6.95;;;;;;;;;;10418914;28;20036;-65
2023/12/05 22:31:23;;;;;;;14.27;6.18;;;;;;;;;;10402883;28;20025;-65
2023/12/05 22:36:27;;;;;;;13.50;6.03;;;;;;;;;;10402944;28;20058;-66
2023/12/05 22:41:27;;;;;;;16.50;6.40;;;;;;;;;;10405436;28;20040;-66
2023/12/05 22:46:28;;;;;;;11.75;6.00;;;;;;;;;;10392002;28;20373;-66
2023/12/05 22:51:29;;;;;;;19.92;6.15;;;;;;;;;;10398446;28;20073;-66
2023/12/05 22:56:29;;;;;;;14.18;6.25;;;;;;;;;;10400140;28;20164;-65
2023/12/05 23:01:30;;;;;;;9.85;5.18;;;;;;;;;;10400872;28;20493;-65
2023/12/05 23:06:31;;;;;;;9.98;6.03;;;;;;;;;;10400726;28;20476;-65
2023/12/05 23:11:31;;;;;;;10.40;5.88;;;;;;;;;;10400304;28;20059;-65
2023/12/05 23:16:32;;;;;;;13.68;5.85;;;;;;;;;;10400778;28;20032;-65
2023/12/05 23:21:33;;;;;;;10.80;5.68;;;;;;;;;;10399000;28;20390;-65
2023/12/05 23:26:34;;;;;;;8.00;5.50;;;;;;;;;;10401154;28;20029;-65
2023/12/05 23:31:34;;;;;;;10.70;5.75;;;;;;;;;;10400638;28;20384;-66
2023/12/05 23:36:35;;;;;;;12.75;5.45;;;;;;;;;;10401334;28;20652;-66
2023/12/05 23:41:36;;;;;;;13.85;6.63;;;;;;;;;;10398684;28;20029;-64
2023/12/05 23:46:36;;;;;;;9.13;5.35;;;;;;;;;;10404721;28;20037;-65
2023/12/05 23:51:37;;;;;;;8.35;5.80;;;;;;;;;;10408657;28;20053;-67
2023/12/05 23:56:37;;;;;;;8.02;5.50;;;;;;;;;;10409527;28;20291;-66
